Tiempo atmosférico en la estación meteorológica de Sevilla Aeropuerto, Sevilla (34 m.)



Fecha
DESCASC
Temp. máxima en grados centígrados (hora)
DESCASC
Temp. mínima en grados centígrados (hora)
DESCASC
Temp. media en grados centígrados
DESCASC
Racha de viento máxima en m/sg (hora)
DESCASC
Velocidad máxima media en intervalos de 10 minutos(hora)
DESCASC
Precipitaciones diarias en mm
DESCASC
Precipitaciones de 00:00 a 06:00 en mm
DESCASC
Precipitaciones de 06:00 a 12:00 en mm
DESCASC
Precipitaciones de 12:00 a 18:00 en mm
DESCASC
Precipitaciones de 18:00 a 24:00 en mm
DESCASC
30-11-2020 18.6 (16:20) 12.2 (23:59) 15.4 9.72 (10:30) 6.94 (10:30) 0 0 0 0 0
29-11-2020 15.6 (13:30) 13.4 (00:00) 14.5 8.33 (04:50) 5.56 (04:50) 11.3 3.8 1 6.1 0.4
28-11-2020 17.1 (16:20) 8.8 (00:00) 13 6.11 (22:10) 3.89 (22:10) 0.4 0 0 0 0.4
27-11-2020 15.2 (13:50) 9.8 (00:00) 12.5 5.83 (18:50) 3.89 (02:00) 0.1 0 0 0 0.1
26-11-2020 14.5 (16:10) 10 (00:00) 12.3 10.83 (14:30) 8.33 (14:30) 7.9 0.3 6.6 0.7 0.3
25-11-2020 18.4 (12:00) 9.7 (00:00) 14 14.44 (12:20) 8.33 (12:20) 21.3 0 0 13.3 8
24-11-2020 17.2 (15:30) 6.7 (00:00) 12 6.11 (10:10) 4.72 (10:30) 0 0 0 0 0
23-11-2020 19.8 (14:00) 8.4 (00:00) 14.1 8.33 (06:20) 5.83 (06:20) 0 0 0 0 0
22-11-2020 21.2 (15:00) 9.9 (00:00) 15.6 10.28 (15:20) 7.5 (15:20) 0 0 0 0 0
21-11-2020 23.4 (16:20) 10.8 (00:00) 17.1 7.22 (10:00) 5 (18:00) 0 0 0 0 0
20-11-2020 24.1 (15:50) 11.9 (00:00) 18 10.83 (12:30) 7.22 (12:30) 0 0 0 0 0
19-11-2020 25.6 (16:20) 12.3 (00:00) 19 8.89 (14:30) 6.11 (15:00) 0 0 0 0 0
18-11-2020 24.5 (16:10) 13.6 (00:00) 19.1 6.67 (10:30) 5 (10:50) 0 0 0 0 0
17-11-2020 24.2 (16:00) 14 (00:00) 19.1 6.11 (08:10) 4.72 (11:30) 0 0 0 0 0
16-11-2020 23 (16:40) 14.1 (00:00) 18.6 4.72 (19:10) 3.33 (19:20) 0 0 0 0 0
15-11-2020 25.7 (16:20) 15.7 (00:00) 20.7 6.11 (11:40) 3.61 (09:20) 0 0 0 0 0
14-11-2020 20.7 (14:50) 17 (00:00) 18.9 9.17 (14:50) 6.67 (15:00) 1.9 0 1.9 0 0
13-11-2020 22.7 (16:10) 12.1 (00:00) 17.4 5.83 (19:40) 3.89 (19:40) 0 0 0 0 0
12-11-2020 23.4 (16:50) 12.9 (00:00) 18.1 8.89 (11:20) 5.83 (13:20) 0 0 0 0 0
11-11-2020 23 (15:20) 11.9 (00:00) 17.4 8.89 (10:30) 6.11 (10:30) 0 0 0 0 0
10-11-2020 21.6 (16:30) 11 (00:00) 16.3 9.17 (12:40) 6.39 (12:40) 0 0 0 0 0
09-11-2020 21.9 (17:00) 14.4 (00:00) 18.1 4.72 (07:30) 2.78 (01:00) 0.3 0.2 0.1 0 0
08-11-2020 22.2 (16:20) 12.2 (00:00) 17.2 7.78 (17:00) 5.83 (17:10) 0 0 0 0 0
07-11-2020 21.5 (15:20) 13.3 (00:00) 17.4 11.39 (00:10) 7.78 (00:10) 9.9 8.9 1 0 0
06-11-2020 24 (14:40) 16.1 (00:00) 20.1 12.78 (23:59) 8.61 (23:59) 0 0 0 0 0
05-11-2020 20.6 (16:10) 14.4 (00:00) 17.5 11.39 (18:30) 7.5 (17:50) 22.5 22.5 0 0 0
04-11-2020 20.7 (12:40) 14.9 (00:00) 17.8 7.22 (16:30) 5.28 (23:59) 0.1 0 0 0.1 0
03-11-2020 24.4 (13:40) 15.1 (00:00) 19.8 6.11 (17:00) 4.72 (17:10) 0 0 0 0 0
02-11-2020 29.2 (17:30) 14.1 (00:00) 21.7 6.11 (10:30) 4.44 (10:40) 0 0 0 0 0

Gráficas

Temp. máximas Temp. mínimas Temp. medias Precipitaciones Rachas de viento máximas Velocidades máximas media en intervalos de 10 minutos

Datos horarios

Fecha y hora oficial Temperatura (ºC) Velocidad del viento (km/h) Dirección del viento Racha (km/h) Dirección de racha Precipitación (mm) Presión (hPa) Tendencia (hPa) Humedad (%)
2020-12-01 23:00:00 11.3 6 Este 8 Este 0 1015.8 -- 100
2020-12-01 22:00:00 12.1 2 Oeste 5 Noroeste 0 1015.7 -- 99
2020-12-01 21:00:00 13.6 4 Noroeste -- -- 0 1015.5 -- 97
2020-12-01 20:00:00 14.5 0 Calma 5 Oeste 0 1015.5 -- 88
2020-12-01 19:00:00 15.5 3 Nordeste -- -- 0 1015.4 -- 83
2020-12-01 18:00:00 18.6 -- -- -- -- 0 1015.3 -- 72
2020-12-01 17:00:00 19.3 6 Norte 11 Norte 0 1015.4 -- 65
2020-12-01 16:00:00 19.4 6 Norte 11 Norte 0 1015.8 -- 66
2020-12-01 15:00:00 19 6 Nordeste 13 Nordeste 0 1016.5 -- 67
2020-12-01 14:00:00 18.7 8 Nordeste 15 Nordeste 0 1017.3 -- 68
2020-12-01 13:00:00 17.9 9 Este 15 Este 0 1018 -- 69
2020-12-01 12:00:00 16.3 8 Nordeste 18 Nordeste 0 1019 -- 88
2020-12-01 11:00:00 13.9 15 Nordeste 22 Nordeste 0 1019.2 -- 96
2020-12-01 10:00:00 11.3 10 Nordeste 22 Norte 0 1019.4 -- 100
2020-12-01 09:00:00 10 9 Norte 13 Norte 0 1019 -- 100
2020-12-01 08:00:00 9.8 7 Nordeste 15 Nordeste 0 1018.9 -- 100
2020-12-01 07:00:00 9.8 10 Nordeste 17 Nordeste 0 1018.6 -- 100
2020-12-01 06:00:00 10.1 5 Norte 9 Norte 0 1018.7 -- 100
2020-12-01 05:00:00 10.5 9 Noroeste 11 Noroeste 0 1018.7 -- 100
2020-12-01 04:00:00 11 7 Norte 13 Norte 0 1018.5 -- 100
2020-12-01 03:00:00 11.2 4 Norte 13 Nordeste 0 1018.5 -- 100
2020-12-01 02:00:00 11.4 12 Norte 13 Norte 0 1018.1 -- 100
2020-12-01 01:00:00 11.8 9 Norte 17 Nordeste 0 1018.1 -- 100
2020-12-01 00:00:00 12.3 6 Norte 13 Nordeste 0 1018.1 -- 100
2020-11-30 23:00:00 13 3 Nordeste 9 Norte 0 1017.8 -- 100
2020-11-30 22:00:00 13.7 8 Norte 9 Norte 0 1017.4 -- 93
2020-11-30 21:00:00 14.3 3 Noroeste 9 Este 0 1017.2 -- 87
2020-11-30 20:00:00 14.9 7 Este 22 Nordeste 0 1016.5 -- 84
2020-11-30 19:00:00 15.8 15 Nordeste 22 Este 0 1015.8 -- 79
2020-11-30 18:00:00 16.8 16 Nordeste 26 Nordeste 0 1015.1 -- 71
2020-11-30 17:00:00 18.4 18 Este 30 Este 0 1014.8 -- 68
2020-11-30 16:00:00 18.2 18 Nordeste 30 Este 0 1014.6 -- 67
2020-11-30 15:00:00 18 17 Nordeste 28 Este 0 1014.9 -- 67
2020-11-30 14:00:00 17.3 16 Nordeste 26 Nordeste 0 1015.1 -- 71
2020-11-30 13:00:00 16.3 17 Nordeste 32 Nordeste 0 1015.1 -- 74
2020-11-30 12:00:00 15 21 Nordeste 33 Nordeste 0 1015.5 -- 78
2020-11-30 11:00:00 14 23 Nordeste 35 Nordeste 0 1015.3 -- 80
2020-11-30 10:00:00 13.1 21 Nordeste 30 Nordeste 0 1015.1 -- 87
2020-11-30 09:00:00 12.6 19 Nordeste 28 Nordeste 0 1014.7 -- 94
2020-11-30 08:00:00 13.4 13 Nordeste 26 Este 0 1014.4 -- 85
2020-11-30 07:00:00 13.9 15 Nordeste 26 Este 0 1013.7 -- 82
2020-11-30 06:00:00 14.8 19 Este 32 Este 0 1013.1 -- 75
2020-11-30 05:00:00 14.9 20 Este 32 Este 0 1012.9 -- 76
2020-11-30 04:00:00 14.2 13 Este 21 Este 0 1013.6 -- 99
2020-11-30 03:00:00 13.4 5 Norte 9 Norte 0 1013.4 -- 100
2020-11-30 02:00:00 13.4 9 Norte 13 Nordeste 0 1013.3 -- 100
2020-11-30 01:00:00 13.5 5 Nordeste 13 Nordeste 0 1013.3 -- 100
2020-11-30 00:00:00 13.7 9 Nordeste 13 Nordeste 0 1013.2 -- 100
2020-11-29 23:00:00 13.8 5 Norte 11 Norte 0 1012.9 -- 100
2020-11-29 22:00:00 14.1 9 Nordeste 13 Nordeste 0 1012.5 -- 100
2020-11-29 21:00:00 14.5 9 Nordeste 13 Nordeste 0 1012.2 -- 100
2020-11-29 20:00:00 14.5 8 Nordeste 18 Nordeste 0 1011.8 -- 100
2020-11-29 19:00:00 14.7 14 Nordeste 18 Este 0.4 1011.4 -- 100
2020-11-29 18:00:00 15.2 4 Sudeste 17 Este 0.5 1011.2 -- 100
2020-11-29 17:00:00 15.4 12 Este 18 Este 0.1 1010.6 -- 100
2020-11-29 16:00:00 15.4 9 Este 11 Este 0.9 1010.4 -- 100
2020-11-29 15:00:00 15.4 6 Nordeste 13 Este 2 1010.3 -- 100
2020-11-29 14:00:00 15.3 8 Sudeste 15 Este 2 1010.7 -- 100
2020-11-29 13:00:00 15.3 12 Nordeste 15 Nordeste 0.6 1011 -- 100
2020-11-29 12:00:00 14.8 11 Nordeste 18 Nordeste 0.1 1011.4 -- 100
2020-11-29 11:00:00 14.7 10 Nordeste 13 Norte 0 1011.3 -- 100
2020-11-29 10:00:00 14.3 0 Calma 17 Este 0.1 1010.6 -- 100
2020-11-29 09:00:00 13.6 11 Nordeste 15 Nordeste 0.1 1009.7 -- 100
2020-11-29 08:00:00 13.8 9 Sudeste 15 Sudeste 0.4 1009.2 -- 100
2020-11-29 07:00:00 14.1 8 Sur 26 Sur 0.3 1008.8 -- 100
2020-11-29 06:00:00 14.3 17 Sudeste 24 Sudeste 1.4 1008.2 -- 100
2020-11-29 05:00:00 14.2 12 Sudoeste 30 Sur 2.1 1008.3 -- 100
2020-11-29 04:00:00 14.5 13 Sur 26 Sur 0 1007.9 -- 100
2020-11-29 03:00:00 14.2 11 Sur 18 Sur 0 1007.5 -- 100
2020-11-29 02:00:00 13.8 10 Sudeste 15 Sudeste 0 1007.3 -- 100
2020-11-29 01:00:00 14.1 12 Sudeste 17 Sudeste 0.3 1007.1 -- 100
2020-11-29 00:00:00 14.3 10 Sudeste 17 Sudeste 0 1007 -- 92
2020-11-28 23:00:00 14.4 10 Sudeste 22 Sudeste 0.3 1006.8 -- 92
2020-11-28 22:00:00 14.3 9 Sudeste 13 Sudeste 0 1006.4 -- 100
2020-11-28 21:00:00 14.1 8 Sudeste 15 Sudeste 0.1 1006.6 -- 100
2020-11-28 20:00:00 14.2 6 Sudeste 13 Sudeste 0 1006.3 -- 100
2020-11-28 19:00:00 14.9 8 Sur 13 Sur 0 1006 -- 89
2020-11-28 18:00:00 15.9 6 Sur 11 Este 0 1005.5 -- 79
2020-11-28 17:00:00 16.3 3 Este 8 Sudeste 0 1005.3 -- 76
2020-11-28 16:00:00 16.5 3 Sur 11 Sur 0 1004.8 -- 84
2020-11-28 15:00:00 14.9 3 Norte 11 Norte 0 1004.9 -- 95
2020-11-28 14:00:00 13.7 6 Oeste 11 Noroeste 0 1005.5 -- 100
2020-11-28 13:00:00 12.3 0 Calma 9 Norte 0 1005.9 -- 100
2020-11-28 12:00:00 10.7 5 Norte 11 Este 0 1006.5 -- 100
2020-11-28 11:00:00 10 4 Nordeste 9 Sur 0 1006.1 -- 100
2020-11-28 10:00:00 9.8 2 Este 9 Sudeste 0 1005.7 -- 100
2020-11-28 09:00:00 9.8 8 Este 13 Este 0 1005.1 -- 100
2020-11-28 08:00:00 8.9 7 Este 9 Este 0 1004.4 -- 100
2020-11-28 07:00:00 9.7 4 Sur 11 Sudoeste 0 1003.7 -- 100
2020-11-28 06:00:00 10.6 9 Sudoeste 13 Sudoeste 0 1003.5 -- 100
2020-11-28 05:00:00 10.8 6 Sur 11 Sur 0 1003.3 -- 100
2020-11-28 04:00:00 11.4 6 Sudoeste 11 Sur 0 1003.2 -- 100
2020-11-28 03:00:00 11.5 5 Sur -- -- 0 1003.1 -- 100
2020-11-28 02:00:00 12.2 5 Sur 9 Sur 0 1003.3 -- 100
2020-11-28 01:00:00 12.6 6 Sur 11 Sudoeste 0 1003.6 -- 100
2020-11-28 00:00:00 12.5 7 Sudoeste 13 Sudoeste 0 1003.4 -- 100
2020-11-27 23:00:00 12.4 9 Sudoeste 11 Sudoeste 0 1003.2 -- 100
2020-11-27 22:00:00 12.2 4 Sudeste 5 Sudeste 0 1003.3 -- 100
2020-11-27 21:00:00 12.3 0 Calma 9 Oeste 0.1 1003.2 -- 100
2020-11-27 20:00:00 12.5 6 Sur 11 Este 0 1002.9 -- 100
2020-11-27 19:00:00 12.8 10 Nordeste 21 Norte 0 1002.8 -- 96
2020-11-27 18:00:00 13.5 7 Norte 11 Noroeste 0 1002.5 -- 81
2020-11-27 17:00:00 14 5 Norte 9 Norte 0 1002.6 -- 75
2020-11-27 16:00:00 14.4 5 Oeste 13 Sudoeste 0 1002.2 -- 70
2020-11-27 15:00:00 14.7 6 Sudoeste 15 Sudoeste 0 1002.3 -- 69
2020-11-27 14:00:00 15 7 Sur 13 Sur 0 1002.6 -- 69
2020-11-27 13:00:00 13.7 5 Noroeste 9 Noroeste 0 1003.2 -- 88
2020-11-27 12:00:00 13.1 5 Oeste 9 Noroeste 0 1004.1 -- 97
2020-11-27 11:00:00 11.7 2 Oeste 5 Oeste 0 1004.1 -- 100
2020-11-27 10:00:00 10.9 4 Oeste 5 Oeste 0 1004.1 -- 100
2020-11-27 09:00:00 10.4 4 Noroeste 9 Noroeste 0 1003.8 -- 100
2020-11-27 08:00:00 10.6 6 Nordeste 18 Nordeste 0 1003.4 -- 100
2020-11-27 07:00:00 10.6 13 Nordeste 17 Nordeste 0 1003.4 -- 100
2020-11-27 06:00:00 10.8 11 Nordeste 17 Nordeste 0 1003.3 -- 100
2020-11-27 05:00:00 10.3 3 Nordeste 11 Nordeste 0 1003.8 -- 100
2020-11-27 04:00:00 10 4 Noroeste 13 Este 0 1004.2 -- 100
2020-11-27 03:00:00 10 8 Nordeste 17 Nordeste 0 1004.2 -- 100
2020-11-27 02:00:00 10 14 Nordeste 18 Nordeste 0 1004.6 -- 100
2020-11-27 01:00:00 10.2 12 Nordeste 17 Nordeste 0 1005 -- 92
2020-11-27 00:00:00 10 13 Nordeste 15 Nordeste 0 1005.5 -- 100
2020-11-26 23:00:00 10.3 5 Este 11 Este 0 1005.3 -- 100
2020-11-26 22:00:00 11.1 8 Sur 13 Sur 0.2 1005.3 -- 95
2020-11-26 21:00:00 11.5 4 Este 11 Sudeste 0.1 1005.2 -- 93
2020-11-26 20:00:00 11.7 5 Sudoeste 13 Sudoeste 0 1005.3 -- 86
2020-11-26 19:00:00 12.2 9 Sudoeste 18 Sur 0 1004.7 -- 84
2020-11-26 18:00:00 13.5 7 Sudeste 22 Sur 0 1004 -- 77
2020-11-26 17:00:00 14.4 12 Sudeste 32 Sur 0 1003.9 -- 74
2020-11-26 16:00:00 14.4 20 Sudeste 33 Sur 0 1003.6 -- 75
2020-11-26 15:00:00 14.2 23 Sur 39 Sudeste 0 1003.9 -- 74
2020-11-26 14:00:00 13.4 17 Sudeste 32 Sudeste 0 1003.7 -- 99
2020-11-26 13:00:00 12.4 6 Sudeste 21 Sur 0.7 1004.4 -- 100
2020-11-26 12:00:00 12.2 11 Este 26 Sudeste 0.7 1005.2 -- 100
2020-11-26 11:00:00 12.3 11 Sudeste 17 Sur 1 1005.4 -- 100
2020-11-26 10:00:00 11.9 9 Sudeste 18 Sudeste 1.6 1004.8 -- 100
2020-11-26 09:00:00 12.1 13 Sudeste 21 Sudeste 1.2 1004.3 -- 100
2020-11-26 08:00:00 12.1 13 Este 18 Este 0.4 1003.7 -- 100
2020-11-26 07:00:00 12 8 Este 18 Sudeste 1.7 1003.8 -- 100
2020-11-26 06:00:00 12.3 14 Sudeste 24 Sudeste 0 1003.6 -- 100
2020-11-26 05:00:00 12.2 16 Sudeste 24 Sudeste 0 1004.1 -- 100
2020-11-26 04:00:00 12 11 Sudeste 24 Este 0 1004.5 -- 100
2020-11-26 03:00:00 11.7 15 Sudeste 22 Sudeste 0 1004.4 -- 100
2020-11-26 02:00:00 11.3 14 Este 18 Este 0 1004.7 -- 100
2020-11-26 01:00:00 11.7 5 Nordeste 17 Oeste 0.3 1006.1 -- 100
2020-11-26 00:00:00 12.1 19 Oeste 28 Oeste 2.4 1006.7 -- 100
2020-11-25 23:00:00 13 15 Sudeste 22 Sudeste 3.8 1006.4 -- 100
2020-11-25 22:00:00 13.2 11 Este 17 Este 0.5 1006.5 -- 100
2020-11-25 21:00:00 13.3 12 Sudeste 22 Sudeste 1 1006.9 -- 100
2020-11-25 20:00:00 13.2 13 Sudeste 18 Sudeste 0.3 1006.9 -- 100
2020-11-25 19:00:00 13.5 10 Sudeste 26 Sudeste 0 1007.1 -- 100
2020-11-25 18:00:00 13.8 16 Sudeste 33 Sudeste 0.1 1007.3 -- 100
2020-11-25 17:00:00 13.9 23 Sudeste 39 Sur 3.4 1007.4 -- 100
2020-11-25 16:00:00 14.1 19 Sur 33 Sur 1.7 1008.2 -- 100
2020-11-25 15:00:00 13.1 17 Sudeste 24 Sur 0 1008.6 -- 100
2020-11-25 14:00:00 12.3 14 Sur 28 Sur 0.9 1009.7 -- 100
2020-11-25 13:00:00 12.8 12 Sur -- -- -- 1010.7 -- 100
2020-11-25 12:00:00 18.2 28 Sur 41 Sur 0 1010.5 -- 89
2020-11-25 11:00:00 16.7 21 Sur 33 Sur 0 1011.6 -- 95
2020-11-25 10:00:00 13.8 6 Este 13 Sudeste 0 1012 -- 100
2020-11-25 09:00:00 11.1 5 Nordeste 11 Nordeste 0 1012.3 -- 100
2020-11-25 08:00:00 10.9 5 Norte 11 Sudeste 0 1012.7 -- 100
2020-11-25 07:00:00 10 10 Sudeste 13 Sudeste 0 1013.2 -- 100
2020-11-25 06:00:00 9.9 5 Este -- -- 0 1013.5 -- 100
2020-11-25 05:00:00 10.2 3 Este 5 Este 0 1014.1 -- 100
2020-11-25 04:00:00 10.7 5 Sudeste 11 Sudoeste 0 1014.5 -- 100
2020-11-25 03:00:00 11.9 9 Sudoeste 15 Sudoeste 0 1014.9 -- 99
2020-11-25 02:00:00 11.6 4 Sur 9 Sur 0 1015.4 -- 91
2020-11-25 01:00:00 11.5 2 Sudoeste 9 Oeste 0 1015.8 -- 91
2020-11-25 00:00:00 12.3 0 Calma 4 Noroeste 0 1015.9 -- 87
2020-11-24 23:00:00 13.3 0 Calma 5 Noroeste 0 1016.2 -- 84
2020-11-24 22:00:00 14 0 Calma 9 Nordeste 0 1016.5 -- 83
2020-11-24 21:00:00 15 6 Norte 8 Nordeste 0 1016.5 -- 79
2020-11-24 20:00:00 15.7 3 Nordeste 8 Nordeste 0 1016.7 -- 67
2020-11-24 19:00:00 15.9 4 Norte 11 Nordeste 0 1016.7 -- 66
2020-11-24 18:00:00 16.4 7 Nordeste 15 Nordeste 0 1016.8 -- 62
2020-11-24 17:00:00 17 12 Nordeste 17 Nordeste 0 1017 -- 58
2020-11-24 16:00:00 17.1 13 Nordeste 18 Nordeste 0 1017.3 -- 56
2020-11-24 15:00:00 16.9 12 Nordeste 15 Nordeste 0 1018.1 -- 55
2020-11-24 14:00:00 16.5 11 Nordeste 15 Nordeste 0 1019.1 -- 54
2020-11-24 13:00:00 15.9 10 Nordeste 17 Nordeste 0 1020.1 -- 55
2020-11-24 12:00:00 14.4 12 Nordeste 21 Nordeste 0 1021.1 -- 60
2020-11-24 11:00:00 12.1 12 Nordeste 22 Nordeste 0 1021.7 -- 69
2020-11-24 10:00:00 9.9 14 Nordeste 21 Nordeste 0 1021.8 -- 77
2020-11-24 09:00:00 7.7 9 Nordeste 15 Nordeste 0 1021.4 -- 85
2020-11-24 08:00:00 7.8 11 Nordeste 18 Nordeste 0 1021.1 -- 88
2020-11-24 07:00:00 7.2 10 Nordeste 15 Nordeste 0 1020.7 -- 100
2020-11-24 06:00:00 7.4 10 Norte 11 Nordeste 0 1020.3 -- 100
2020-11-24 05:00:00 7.4 5 Norte 8 Norte 0 1020.4 -- 99
2020-11-24 04:00:00 6.8 0 Calma 8 Este 0 1020.8 -- 92
2020-11-24 03:00:00 7.7 2 Este 8 Norte 0 1021.1 -- 89
2020-11-24 02:00:00 8.6 6 Norte 9 Nordeste 0 1021.4 -- 88
2020-11-24 01:00:00 9.2 7 Nordeste 13 Nordeste 0 1021.5 -- 83
2020-11-24 00:00:00 9.7 8 Nordeste 11 Nordeste 0 1021.8 -- 79
2020-11-23 23:00:00 10.3 7 Nordeste 9 Nordeste 0 1021.8 -- 80
2020-11-23 22:00:00 11.4 4 Este 11 Norte 0 1021.9 -- 76
2020-11-23 21:00:00 12.4 10 Nordeste 11 Nordeste 0 1021.8 -- 73
2020-11-23 20:00:00 13.8 5 Nordeste -- -- 0 1021.6 -- 67
2020-11-23 19:00:00 15.2 5 Norte 11 Nordeste 0 1021.5 -- 62
2020-11-23 18:00:00 17.4 11 Nordeste 15 Norte 0 1021.1 -- 55
2020-11-23 17:00:00 18.8 13 Norte 18 Nordeste 0 1021 -- 46
2020-11-23 16:00:00 19.5 7 Norte 17 Norte 0 1021.2 -- 44
2020-11-23 15:00:00 19 7 Norte 18 Norte 0 1021.5 -- 45
2020-11-23 14:00:00 19.6 4 Noroeste 13 Noroeste 0 1022.3 -- 44
2020-11-23 13:00:00 17.4 8 Nordeste 17 Nordeste 0 1023.1 -- 52
2020-11-23 12:00:00 15.4 10 Nordeste 18 Este 0 1023.9 -- 61
2020-11-23 11:00:00 13.1 12 Nordeste 22 Nordeste 0 1024.1 -- 68
2020-11-23 10:00:00 10.5 17 Nordeste 22 Nordeste 0 1023.8 -- 78
2020-11-23 09:00:00 8.8 11 Nordeste 24 Este 0 1023.4 -- 85
2020-11-23 08:00:00 8.5 16 Nordeste 22 Nordeste 0 1022.8 -- 87
2020-11-23 07:00:00 9 15 Nordeste 30 Nordeste 0 1022.4 -- 85
2020-11-23 06:00:00 9.2 17 Nordeste 24 Este 0 1022.2 -- 85
2020-11-23 05:00:00 9.3 15 Nordeste 22 Este 0 1022.2 -- 85
2020-11-23 04:00:00 9 13 Nordeste 18 Nordeste 0 1022.5 -- 88
2020-11-23 03:00:00 9.2 11 Nordeste 17 Nordeste 0 1022.5 -- 88
2020-11-23 02:00:00 9 11 Nordeste 13 Nordeste 0 1022.7 -- 87
2020-11-23 01:00:00 9.5 12 Nordeste 13 Nordeste 0 1022.8 -- 84
2020-11-23 00:00:00 10 12 Nordeste 13 Nordeste 0 1022.8 -- 83
2020-11-22 23:00:00 10.7 11 Nordeste 15 Este 0 1022.9 -- 78
2020-11-22 22:00:00 12.8 12 Este 18 Este 0 1022.5 -- 66
2020-11-22 21:00:00 14.1 11 Este 21 Nordeste 0 1022.2 -- 61
2020-11-22 20:00:00 15.2 13 Este 22 Nordeste 0 1022 -- 57
2020-11-22 19:00:00 16.6 16 Nordeste 22 Nordeste 0 1021.5 -- 51
2020-11-22 18:00:00 18.3 16 Nordeste 28 Nordeste 0 1021.4 -- 46
2020-11-22 17:00:00 19.6 19 Nordeste 32 Este 0 1021.1 -- 45
2020-11-22 16:00:00 20.8 21 Este 37 Este 0 1021.2 -- 38
2020-11-22 15:00:00 21.1 22 Este 32 Este 0 1021.4 -- 39
2020-11-22 14:00:00 20.6 17 Este 30 Este 0 1022.1 -- 46
2020-11-22 13:00:00 19.1 22 Este 32 Este 0 1023 -- 52
2020-11-22 12:00:00 17.9 20 Este 30 Este 0 1023.8 -- 57
2020-11-22 11:00:00 16.4 22 Este 32 Este 0 1023.8 -- 64
2020-11-22 10:00:00 13.4 19 Nordeste 26 Este 0 1023.5 -- 75
2020-11-22 09:00:00 11.7 18 Nordeste 24 Este 0 1023.1 -- 81
2020-11-22 08:00:00 11.4 15 Nordeste 22 Nordeste 0 1022.6 -- 84
2020-11-22 07:00:00 11.5 14 Nordeste 21 Nordeste 0 1022.2 -- 85
2020-11-22 06:00:00 11.3 6 Este 11 Este 0 1022.1 -- 88
2020-11-22 05:00:00 11.9 4 Norte 13 Este 0 1021.9 -- 86
2020-11-22 04:00:00 13 8 Este 18 Este 0 1021.8 -- 83
2020-11-22 03:00:00 13.3 13 Este 21 Este 0 1021.6 -- 81
2020-11-22 02:00:00 13.1 12 Este 21 Nordeste 0 1021.6 -- 83
2020-11-22 01:00:00 14 15 Nordeste 21 Nordeste 0 1021.8 -- 79
2020-11-22 00:00:00 13.6 11 Nordeste 15 Este 0 1022 -- 82
2020-11-21 23:00:00 14.9 12 Este 18 Este 0 1022 -- 74
2020-11-21 22:00:00 15.5 15 Este 24 Este 0 1021.8 -- 70
2020-11-21 21:00:00 16.2 18 Este 26 Este 0 1021.6 -- 64
2020-11-21 20:00:00 17.3 16 Este 22 Este 0 1021.1 -- 60
2020-11-21 19:00:00 18.8 15 Este 24 Este 0 1020.7 -- 58
2020-11-21 18:00:00 21.1 18 Este 26 Sudeste 0 1020.2 -- 53
2020-11-21 17:00:00 23.1 9 Oeste 15 Oeste 0 1019.8 -- 46
2020-11-21 16:00:00 23.1 5 Oeste 13 Oeste 0 1019.6 -- 44
2020-11-21 15:00:00 22.3 11 Sudoeste 17 Sudoeste 0 1019.8 -- 45
2020-11-21 14:00:00 22.4 11 Sudoeste 21 Este 0 1020.3 -- 50
2020-11-21 13:00:00 20.8 13 Este 22 Nordeste 0 1020.9 -- 55
2020-11-21 12:00:00 18.4 9 Nordeste 17 Nordeste 0 1021.8 -- 56
2020-11-21 11:00:00 16.4 9 Nordeste 22 Nordeste 0 1021.9 -- 59
2020-11-21 10:00:00 14 17 Nordeste 26 Este 0 1022 -- 61
2020-11-21 09:00:00 11.9 8 Nordeste 22 Nordeste 0 1021.4 -- 71
2020-11-21 08:00:00 11.3 14 Nordeste 22 Este 0 1020.9 -- 75
2020-11-21 07:00:00 11.8 15 Nordeste 21 Nordeste 0 1020 -- 74
2020-11-21 06:00:00 11.1 12 Nordeste 18 Nordeste 0 1019.8 -- 85
2020-11-21 05:00:00 11.1 8 Nordeste 21 Nordeste 0 1019.7 -- 83
2020-11-21 04:00:00 11.1 12 Nordeste 17 Nordeste 0 1020.1 -- 76
2020-11-21 03:00:00 12.1 10 Nordeste 18 Nordeste 0 1019.7 -- 74
2020-11-21 02:00:00 12 13 Nordeste 18 Nordeste 0 1019.9 -- 70
2020-11-21 01:00:00 12.2 10 Norte 13 Norte 0 1020.6 -- 76
2020-11-21 00:00:00 13.8 3 Norte 18 Nordeste 0 1020.6 -- 69
2020-11-20 23:00:00 13.2 9 Este 13 Este 0 1020.4 -- 82
2020-11-20 22:00:00 15 9 Nordeste 13 Este 0 1020.3 -- 77
2020-11-20 21:00:00 14.3 8 Este 13 Este 0 1020.1 -- 76
2020-11-20 20:00:00 16.3 9 Nordeste 11 Nordeste 0 1020.1 -- 64
2020-11-20 19:00:00 18.5 9 Nordeste 17 Este 0 1019.9 -- 50
2020-11-20 18:00:00 22.1 13 Este 26 Este 0 1019.9 -- 33
2020-11-20 17:00:00 24 17 Este 32 Este 0 1019.9 -- 30
2020-11-20 16:00:00 24.1 20 Este 32 Este 0 1019.9 -- 30
2020-11-20 15:00:00 23.3 21 Nordeste 37 Nordeste 0 1020.4 -- 39
2020-11-20 14:00:00 22.6 26 Nordeste 35 Este 0 1021.3 -- 43
2020-11-20 13:00:00 21.5 24 Nordeste 39 Este 0 1022.3 -- 50
2020-11-20 12:00:00 19.5 21 Nordeste 32 Nordeste 0 1023.4 -- 64
2020-11-20 11:00:00 17.8 16 Nordeste 26 Nordeste 0 1023.5 -- 73
2020-11-20 10:00:00 15.4 17 Nordeste 26 Este 0 1023.5 -- 83
2020-11-20 09:00:00 12.3 9 Nordeste 17 Nordeste 0 1023.3 -- 100
2020-11-20 08:00:00 12.4 8 Este 18 Nordeste 0 1022.9 -- 100
2020-11-20 07:00:00 12.5 11 Nordeste 17 Nordeste 0 1022.9 -- 100
2020-11-20 06:00:00 12.8 10 Nordeste 15 Este 0 1023 -- 100
2020-11-20 05:00:00 12.5 9 Nordeste 15 Nordeste 0 1022.9 -- 100
2020-11-20 04:00:00 12.8 4 Nordeste 17 Nordeste 0 1023.2 -- 99
2020-11-20 03:00:00 13.3 6 Este 11 Nordeste 0 1023.6 -- 91
2020-11-20 02:00:00 13.4 12 Nordeste 17 Nordeste 0 1024 -- 92
2020-11-20 01:00:00 13.8 6 Nordeste 9 Nordeste 0 1024.4 -- 89
2020-11-20 00:00:00 14 7 Este 11 Sudeste 0 1024.4 -- 88
2020-11-19 23:00:00 15 4 Este 8 Nordeste 0 1024.7 -- 85
2020-11-19 22:00:00 15.9 5 Sudeste 17 Sur 0 1024.3 -- 81
2020-11-19 21:00:00 17 2 Nordeste 8 Este 0 1024.1 -- 77
2020-11-19 20:00:00 18 6 Nordeste 11 Norte 0 1023.9 -- 78
2020-11-19 19:00:00 20.1 3 Este -- -- 0 1023.1 -- 63
2020-11-19 18:00:00 23.4 8 Este 18 Este 0 1022.5 -- 47
2020-11-19 17:00:00 25.4 15 Este 26 Este 0 1022.5 -- 36
2020-11-19 16:00:00 25.5 17 Este 28 Este 0 1022.4 -- 37
2020-11-19 15:00:00 25.1 22 Nordeste 32 Este 0 1022.6 -- 38
2020-11-19 14:00:00 23.9 20 Este 30 Este 0 1023.1 -- 43
2020-11-19 13:00:00 22.4 18 Nordeste 24 Norte 0 1024.1 -- 53
2020-11-19 12:00:00 20.4 14 Nordeste 24 Nordeste 0 1024.7 -- 61
2020-11-19 11:00:00 18.4 15 Nordeste 22 Nordeste 0 1024.7 -- 67
2020-11-19 10:00:00 16.2 14 Nordeste 22 Nordeste 0 1024.2 -- 92
2020-11-19 09:00:00 13.9 16 Nordeste 24 Nordeste 0 1023.4 -- 100
2020-11-19 08:00:00 13.1 14 Nordeste 21 Nordeste 0 1022.6 -- 100
2020-11-19 07:00:00 12.4 9 Nordeste 15 Nordeste 0 1022.3 -- 100
2020-11-19 06:00:00 12.5 10 Nordeste 13 Nordeste 0 1022.2 -- 100
2020-11-19 05:00:00 13 5 Nordeste 11 Nordeste 0 1022 -- 100
2020-11-19 04:00:00 12.8 6 Nordeste 9 Nordeste 0 1021.8 -- 100
2020-11-19 03:00:00 13.1 6 Nordeste 13 Nordeste 0 1021.7 -- 100
2020-11-19 02:00:00 13.5 9 Nordeste 11 Nordeste 0 1021.8 -- 100
2020-11-19 01:00:00 14.4 9 Nordeste 11 Nordeste 0 1022 -- 96
2020-11-19 00:00:00 14.9 10 Nordeste 15 Este 0 1022.1 -- 90
2020-11-18 23:00:00 15.9 15 Este 18 Este 0 1021.8 -- 86
2020-11-18 22:00:00 16.3 8 Norte 11 Nordeste 0 1021.7 -- 84
2020-11-18 21:00:00 17.3 8 Este 15 Este 0 1021.6 -- 80
2020-11-18 20:00:00 18.1 6 Este 11 Nordeste 0 1021.2 -- 78
2020-11-18 19:00:00 19.6 9 Norte 13 Norte 0 1021 -- 72
2020-11-18 18:00:00 22.2 9 Norte 13 Norte 0 1020.6 -- 62
2020-11-18 17:00:00 24.2 10 Norte 15 Norte 0 1020.5 -- 52
2020-11-18 16:00:00 24.2 11 Nordeste 17 Nordeste 0 1020.5 -- 51
2020-11-18 15:00:00 23.5 10 Este 17 Norte 0 1020.9 -- 54
2020-11-18 14:00:00 22.4 10 Nordeste 18 Nordeste 0 1021.4 -- 59
2020-11-18 13:00:00 21.3 14 Nordeste -- -- -- 1022.5 -- 63
2020-11-18 12:00:00 19.4 15 Nordeste 22 Nordeste -- 1023.2 -- 70
2020-11-18 11:00:00 17.4 15 Nordeste 24 Nordeste 0 1023.5 -- 85
2020-11-18 10:00:00 15.6 15 Nordeste 22 Nordeste 0 1023.3 -- 95
2020-11-18 09:00:00 13.9 15 Nordeste 21 Nordeste 0 1022.8 -- 100
2020-11-18 08:00:00 14.1 15 Nordeste 22 Nordeste 0 1022.5 -- 100
2020-11-18 07:00:00 14 16 Nordeste 22 Nordeste 0 1022.2 -- 100
2020-11-18 06:00:00 14.3 13 Nordeste 18 Nordeste 0 1022.1 -- 100
2020-11-18 05:00:00 14.5 15 Nordeste 22 Nordeste 0 1022 -- 100
2020-11-18 04:00:00 14 9 Nordeste 13 Nordeste 0 1022.2 -- 100
2020-11-18 03:00:00 14.2 6 Nordeste 13 Nordeste 0 1022.2 -- 100
2020-11-18 02:00:00 14.2 10 Nordeste 11 Nordeste 0 1022.5 -- 100
2020-11-18 01:00:00 14.5 0 Calma 5 Nordeste 0 1022.7 -- 100
2020-11-18 00:00:00 15.4 4 Norte 11 Norte 0 1022.9 -- 100
2020-11-17 23:00:00 16 6 Norte 9 Norte 0 1022.9 -- 100
2020-11-17 22:00:00 17 4 Norte 11 Sudeste 0 1022.8 -- 89
2020-11-17 21:00:00 17.2 6 Este 8 Este 0 1022.4 -- 89
2020-11-17 20:00:00 18.2 7 Este 8 Este 0 1022.3 -- 85
2020-11-17 19:00:00 20.1 4 Nordeste 5 Nordeste 0 1022 -- 77
2020-11-17 18:00:00 22.6 6 Noroeste 11 Noroeste 0 1021.8 -- 64
2020-11-17 17:00:00 23.8 5 Norte 11 Noroeste 0 1021.8 -- 58
2020-11-17 16:00:00 24.1 5 Noroeste 13 Oeste 0 1021.8 -- 60
2020-11-17 15:00:00 22.8 4 Norte 9 Norte 0 1022.1 -- 67
2020-11-17 14:00:00 22.1 3 Nordeste 13 Sudeste 0 1022.4 -- 75
2020-11-17 13:00:00 19.8 5 Nordeste 17 Nordeste 0 1022.9 -- 89
2020-11-17 12:00:00 17.7 13 Nordeste 22 Nordeste 0 1023.4 -- 99
2020-11-17 11:00:00 16.8 13 Nordeste 21 Nordeste 0 1023.4 -- 100
2020-11-17 10:00:00 14.8 13 Nordeste 22 Nordeste 0 1023.4 -- 100
2020-11-17 09:00:00 14.4 12 Nordeste 22 Nordeste 0 1022.7 -- 100
2020-11-17 08:00:00 14.4 12 Nordeste 18 Nordeste 0 1022.1 -- 100
2020-11-17 07:00:00 14.1 9 Nordeste 13 Nordeste 0 1021.7 -- 100
2020-11-17 06:00:00 14.2 7 Nordeste 15 Nordeste 0 1021.5 -- 100
2020-11-17 05:00:00 15.2 9 Nordeste 15 Nordeste 0 1021.3 -- 100
2020-11-17 04:00:00 15.8 4 Norte 5 Norte 0 1021.5 -- 100
2020-11-17 03:00:00 15.8 0 Calma 5 Sudoeste 0 1021.4 -- 100
2020-11-17 02:00:00 15.9 4 Sur 5 Sur 0 1021.6 -- 100
2020-11-17 01:00:00 15.4 0 Calma 5 Sudeste 0 1021.7 -- 100
2020-11-17 00:00:00 15.8 7 Sudeste 11 Sudeste 0 1021.8 -- 100
2020-11-16 23:00:00 16.5 6 Sudeste 9 Este 0 1021.9 -- 100
2020-11-16 22:00:00 17 3 Sur -- -- 0 1021.6 -- 100
2020-11-16 21:00:00 18 6 Sudeste 9 Sudeste 0 1021.3 -- 100
2020-11-16 20:00:00 19.5 3 Sudoeste 17 Sudoeste 0 1020.6 -- 89
2020-11-16 19:00:00 20.2 10 Sudoeste 13 Sudoeste 0 1020.2 -- 84
2020-11-16 18:00:00 21.6 4 Sudeste 5 Sudeste 0 1019.7 -- 76
2020-11-16 17:00:00 22.8 3 Oeste 8 Oeste 0 1019.6 -- 70
2020-11-16 16:00:00 22.7 5 Noroeste 13 Oeste 0 1019.4 -- 71
2020-11-16 15:00:00 22.1 8 Oeste 13 Oeste 0 1019.7 -- 84
2020-11-16 14:00:00 21.2 6 Oeste 9 Oeste 0 1020.3 -- 92
2020-11-16 13:00:00 19.6 0 Calma 5 Sudeste 0 1021.2 -- 100
2020-11-16 12:00:00 18.1 2 Este 8 Este 0 1021.5 -- 100
2020-11-16 11:00:00 17 0 Calma 11 Noroeste 0 1021.4 -- 100
2020-11-16 10:00:00 16.4 8 Norte 13 Norte 0 1021.1 -- 100
2020-11-16 09:00:00 15.9 0 Calma 11 Norte 0 1020.2 -- 100
2020-11-16 08:00:00 15.8 4 Nordeste 13 Norte 0 1019.8 -- 100
2020-11-16 07:00:00 15.3 4 Norte 8 Noroeste 0 1019.2 -- 100
2020-11-16 06:00:00 14.8 2 Este 5 Sudeste 0 1019 -- 100
2020-11-16 05:00:00 14.3 6 Sudeste 9 Sudeste 0 1018.6 -- 100
2020-11-16 04:00:00 15.4 2 Nordeste 9 Norte 0 1019.3 -- 100
2020-11-16 03:00:00 15.8 4 Sur 11 Sudeste 0 1019 -- 100
2020-11-16 02:00:00 15.9 6 Sudeste 8 Sudeste 0 1019 -- 100
2020-11-16 01:00:00 16.9 3 Norte 5 Norte 0 1019.1 -- 100
2020-11-16 00:00:00 17.2 6 Oeste 11 Oeste 0 1018.9 -- 100
2020-11-15 23:00:00 17.6 9 Sur 11 Sur 0 1018.6 -- 97
2020-11-15 22:00:00 18.2 5 Sur 9 Sudeste 0 1018.6 -- 92
2020-11-15 21:00:00 19 3 Este 11 Este 0 1018.4 -- 92
2020-11-15 20:00:00 20.2 8 Este 11 Este 0 1018.3 -- 85
2020-11-15 19:00:00 21.7 3 Nordeste 9 Oeste 0 1017.7 -- 73
2020-11-15 18:00:00 23.9 8 Oeste 9 Oeste 0 1017.3 -- 63
2020-11-15 17:00:00 25.3 8 Sudoeste 13 Sudoeste 0 1017.1 -- 54
2020-11-15 16:00:00 25.4 6 Sudoeste 15 Sudoeste 0 1017.3 -- 53
2020-11-15 15:00:00 24.4 6 Sudeste 13 Sudeste 0 1017.5 -- 59
2020-11-15 14:00:00 23.6 3 Este 13 Norte 0 1018 -- 62
2020-11-15 13:00:00 22.1 6 Norte 15 Norte 0 1018.7 -- 71
2020-11-15 12:00:00 20.9 9 Nordeste 22 Norte 0 1019.2 -- 73
2020-11-15 11:00:00 18.7 12 Nordeste 15 Nordeste 0 1019.2 -- 99
2020-11-15 10:00:00 16.8 9 Nordeste 17 Nordeste 0 1019 -- 100
2020-11-15 09:00:00 15.8 10 Nordeste 15 Nordeste 0 1018.9 -- 100
2020-11-15 08:00:00 15.9 7 Nordeste 13 Este 0 1018.3 -- 100
2020-11-15 07:00:00 16.2 8 Nordeste 11 Nordeste 0 1018.3 -- 100
2020-11-15 06:00:00 16.7 8 Nordeste 11 Nordeste 0 1017.9 -- 100
2020-11-15 05:00:00 16.8 5 Norte 8 Nordeste 0 1018.3 -- 100
2020-11-15 04:00:00 16.8 7 Nordeste 13 Este 0 1018.3 -- 100
2020-11-15 03:00:00 17.2 8 Nordeste 11 Nordeste 0 1018.3 -- 100
2020-11-15 02:00:00 17.4 2 Nordeste 11 Sur 0 1018.6 -- 100
2020-11-15 01:00:00 17.2 10 Sur 13 Sur 0 1018.6 -- 100
2020-11-15 00:00:00 18.1 5 Sudeste 13 Sur 0 1019 -- 100
2020-11-14 23:00:00 18.3 8 Sur 13 Sur 0 1019.4 -- 100
2020-11-14 22:00:00 18.3 9 Sur 15 Sur 0 1019 -- 100
2020-11-14 21:00:00 18.7 6 Sur 13 Sudoeste 0 1018.9 -- 100
2020-11-14 20:00:00 19 9 Sur 18 Sudoeste 0 1018.4 -- 99
2020-11-14 19:00:00 19.5 9 Sur 22 Sudoeste 0 1017.8 -- 89
2020-11-14 18:00:00 20 17 Sudoeste 26 Sudoeste 0 1017.4 -- 85
2020-11-14 17:00:00 20.4 16 Sudoeste 24 Sudoeste 0 1017.1 -- 82
2020-11-14 16:00:00 20 13 Sur 30 Sudoeste 0 1016.9 -- 84
2020-11-14 15:00:00 20.1 24 Sudoeste 33 Sudoeste 0 1016.9 -- 79
2020-11-14 14:00:00 19.8 21 Sudoeste 30 Sudoeste 0 1017.1 -- 82
2020-11-14 13:00:00 19 21 Sudoeste 32 Sudoeste 0 1017.6 -- 100
2020-11-14 12:00:00 18.4 13 Sur 30 Sur 0.3 1017.9 -- 100
2020-11-14 11:00:00 17.6 14 Sur 26 Sur 0.3 1017.8 -- 100
2020-11-14 10:00:00 17.3 6 Sur 9 Sudeste 0.8 1017.6 -- 100
2020-11-14 09:00:00 17.3 6 Sudoeste 18 Sudoeste 0.2 1017.1 -- 100
2020-11-14 08:00:00 17 8 Sur 13 Sur 0.1 1016.5 -- 100
2020-11-14 07:00:00 17.1 9 Sudeste 15 Sur 0.2 1016 -- 90
2020-11-14 06:00:00 17.1 9 Sudeste 13 Sudeste 0 1015.7 -- 88
2020-11-14 05:00:00 17.3 4 Este 8 Este 0 1015.7 -- 88
2020-11-14 04:00:00 17.3 2 Nordeste 11 Sur 0 1016 -- 87
2020-11-14 03:00:00 17.3 5 Sur 11 Sur 0 1016.3 -- 86
2020-11-14 02:00:00 17.1 4 Sur 9 Sudeste 0 1016.5 -- 91
2020-11-14 01:00:00 17.3 6 Sudeste 9 Sudeste 0 1016.8 -- 96
2020-11-14 00:00:00 17.7 2 Este 5 Oeste 0 1017 -- 88
2020-11-13 23:00:00 18 3 Sudeste 5 Sudeste 0 1016.9 -- 85
2020-11-13 22:00:00 18.2 5 Sudeste 8 Sudeste 0 1016.6 -- 81
2020-11-13 21:00:00 19.1 6 Oeste 13 Oeste 0 1016.3 -- 73
2020-11-13 20:00:00 19.7 12 Oeste 21 Sudoeste 0 1016 -- 69
2020-11-13 19:00:00 19.9 10 Este 18 Este 0 1015.4 -- 68
2020-11-13 18:00:00 21.5 5 Este 9 Sudeste 0 1015 -- 67
2020-11-13 17:00:00 22.2 4 Sudeste 11 Sudeste 0 1015.1 -- 56
2020-11-13 16:00:00 22.5 5 Sur 15 Sudeste 0 1015 -- 55
2020-11-13 15:00:00 22.5 5 Sudeste 13 Sur 0 1015.3 -- 54
2020-11-13 14:00:00 21.1 6 Nordeste 13 Este 0 1016.1 -- 60
2020-11-13 13:00:00 19.5 6 Nordeste 15 Nordeste 0 1016.7 -- 66
2020-11-13 12:00:00 17.7 9 Nordeste 15 Nordeste 0 1017.4 -- 72
2020-11-13 11:00:00 16.1 9 Nordeste 17 Nordeste 0 1017.4 -- 76
2020-11-13 10:00:00 14.1 12 Nordeste 17 Norte 0 1017.4 -- 84
2020-11-13 09:00:00 12.7 9 Nordeste 17 Nordeste 0 1016.5 -- 99
2020-11-13 08:00:00 12.2 8 Nordeste 15 Nordeste 0 1015.9 -- 100
2020-11-13 07:00:00 12.1 11 Nordeste 17 Nordeste 0 1015.6 -- 100
2020-11-13 06:00:00 12.1 7 Norte 11 Nordeste 0 1015.4 -- 100
2020-11-13 05:00:00 12.2 5 Nordeste 13 Norte 0 1015.2 -- 100
2020-11-13 04:00:00 12.2 10 Nordeste 13 Nordeste 0 1015.3 -- 100
2020-11-13 03:00:00 12.4 3 Nordeste 17 Nordeste 0 1015.3 -- 100
2020-11-13 02:00:00 12.4 11 Nordeste 17 Nordeste 0 1015.5 -- 100
2020-11-13 01:00:00 12.8 8 Norte 11 Nordeste 0 1015.7 -- 99
2020-11-13 00:00:00 13 4 Nordeste 8 Noroeste 0 1015.7 -- 91
2020-11-12 23:00:00 13.9 2 Noroeste 4 Noroeste 0 1015.6 -- 86
2020-11-12 22:00:00 14.8 0 Calma 5 Este 0 1015.2 -- 83
2020-11-12 21:00:00 15.7 3 Nordeste 11 Sur 0 1015 -- 77
2020-11-12 20:00:00 17 3 Norte 17 Nordeste 0 1014.6 -- 71
2020-11-12 19:00:00 18.9 12 Nordeste 22 Nordeste 0 1014.3 -- 62
2020-11-12 18:00:00 21 14 Nordeste 22 Nordeste 0 1014 -- 54
2020-11-12 17:00:00 22.8 10 Nordeste 17 Este 0 1014.2 -- 49
2020-11-12 16:00:00 22.9 7 Este 22 Nordeste 0 1013.9 -- 46
2020-11-12 15:00:00 22.1 13 Nordeste 24 Este 0 1014.4 -- 52
2020-11-12 14:00:00 20.7 15 Este 30 Este 0 1015.1 -- 57
2020-11-12 13:00:00 18.9 21 Este 28 Este 0 1016 -- 64
2020-11-12 12:00:00 16.9 16 Este 32 Este 0 1017 -- 72
2020-11-12 11:00:00 15.8 20 Nordeste 28 Este 0 1017.3 -- 75
2020-11-12 10:00:00 14.5 21 Nordeste 28 Nordeste 0 1017.3 -- 81
2020-11-12 09:00:00 12.9 17 Nordeste 28 Nordeste 0 1017.2 -- 90
2020-11-12 08:00:00 13.3 17 Nordeste 26 Nordeste 0 1016.8 -- 89
2020-11-12 07:00:00 13.3 18 Nordeste 24 Nordeste 0 1016.6 -- 89
2020-11-12 06:00:00 13.9 15 Nordeste 24 Nordeste 0 1016.7 -- 87
2020-11-12 05:00:00 14.4 17 Nordeste 28 Este 0 1016.7 -- 84
2020-11-12 04:00:00 14.5 17 Nordeste 24 Nordeste 0 1017.1 -- 85
2020-11-12 03:00:00 14 15 Nordeste 22 Nordeste 0 1017.6 -- 95
2020-11-12 02:00:00 13.7 8 Norte 11 Norte 0 1018.3 -- 92
2020-11-12 01:00:00 14.1 6 Norte 9 Norte 0 1018.4 -- 87
2020-11-12 00:00:00 14.9 4 Nordeste 9 Nordeste 0 1018.4 -- 83
2020-11-11 23:00:00 15 6 Este 9 Este 0 1018.6 -- 82
2020-11-11 22:00:00 15.4 5 Este 13 Este 0 1018.6 -- 78
2020-11-11 21:00:00 16.3 9 Este 17 Nordeste 0 1018.2 -- 76
2020-11-11 20:00:00 17.2 13 Nordeste 18 Nordeste 0 1017.7 -- 73
2020-11-11 19:00:00 19.1 12 Nordeste 21 Este 0 1017.6 -- 64
2020-11-11 18:00:00 21 14 Este 24 Este 0 1017.1 -- 55
2020-11-11 17:00:00 22.1 13 Nordeste 21 Nordeste 0 1016.9 -- 53
2020-11-11 16:00:00 22.7 14 Norte 22 Norte 0 1017 -- 49
2020-11-11 15:00:00 22.7 10 Nordeste 21 Nordeste 0 1017 -- 47
2020-11-11 14:00:00 22.5 15 Este 30 Este 0 1017.4 -- 48
2020-11-11 13:00:00 21.4 15 Nordeste 30 Este 0 1018.6 -- 57
2020-11-11 12:00:00 20 21 Este 32 Este 0 1019.5 -- 64
2020-11-11 11:00:00 18.6 18 Este 32 Este 0 1019.8 -- 69
2020-11-11 10:00:00 15.4 14 Nordeste 24 Nordeste 0 1019.9 -- 81
2020-11-11 09:00:00 13 20 Nordeste 30 Nordeste 0 1019.8 -- 99
2020-11-11 08:00:00 12.1 17 Nordeste 22 Nordeste 0 1019.5 -- 100
2020-11-11 07:00:00 12.6 13 Nordeste 17 Nordeste 0 1019.2 -- 100
2020-11-11 06:00:00 12.4 10 Norte 13 Nordeste 0 1019.3 -- 100
2020-11-11 05:00:00 12.1 11 Nordeste 13 Nordeste 0 1019.6 -- 100
2020-11-11 04:00:00 12 9 Nordeste 15 Nordeste 0 1020.1 -- 100
2020-11-11 03:00:00 12.4 9 Nordeste 15 Nordeste 0 1020.2 -- 100
2020-11-11 02:00:00 12.7 12 Nordeste 18 Nordeste 0 1020.7 -- 100
2020-11-11 01:00:00 13.2 11 Norte 15 Norte 0 1021.2 -- 100
2020-11-11 00:00:00 13.4 6 Norte 9 Norte 0 1020.8 -- 92
2020-11-10 23:00:00 14.1 3 Norte 9 Nordeste 0 1021.1 -- 90
2020-11-10 22:00:00 14.3 5 Nordeste 15 Nordeste 0 1020.8 -- 89
2020-11-10 21:00:00 15 11 Nordeste 11 Nordeste 0 1020.4 -- 88
2020-11-10 20:00:00 16.4 7 Norte 9 Norte 0 1020.1 -- 80
2020-11-10 19:00:00 18.1 3 Nordeste 9 Este 0 1020 -- 70
2020-11-10 18:00:00 20.6 9 Nordeste 21 Nordeste 0 1020 -- 58
2020-11-10 17:00:00 21.6 17 Este 28 Este 0 1019.8 -- 53
2020-11-10 16:00:00 21.4 18 Nordeste 30 Nordeste 0 1019.8 -- 57
2020-11-10 15:00:00 20.6 19 Nordeste 28 Nordeste 0 1020 -- 62
2020-11-10 14:00:00 19.7 17 Nordeste 30 Este 0 1020.8 -- 66
2020-11-10 13:00:00 18.9 19 Nordeste 33 Este 0 1021.8 -- 69
2020-11-10 12:00:00 17.9 21 Nordeste 30 Nordeste 0 1022.3 -- 74
2020-11-10 11:00:00 16.3 15 Nordeste 22 Nordeste 0 1022.5 -- 78
2020-11-10 10:00:00 14.3 11 Nordeste 17 Este 0 1022.6 -- 98
2020-11-10 09:00:00 12.4 8 Nordeste 11 Nordeste 0 1022.3 -- 100
2020-11-10 08:00:00 11.3 2 Nordeste 5 Este 0 1021.7 -- 100
2020-11-10 07:00:00 11.5 3 Este 8 Sudeste 0 1021.1 -- 100
2020-11-10 06:00:00 12.3 3 Nordeste 11 Nordeste 0 1020.9 -- 100
2020-11-10 05:00:00 12.8 9 Nordeste 13 Nordeste 0 1020.9 -- 100
2020-11-10 04:00:00 13.4 10 Nordeste 15 Nordeste 0 1020.8 -- 100
2020-11-10 03:00:00 13.3 7 Nordeste 13 Nordeste 0 1020.9 -- 100
2020-11-10 02:00:00 14.1 9 Nordeste 13 Nordeste 0 1021.1 -- 100
2020-11-10 01:00:00 14.6 9 Nordeste 15 Nordeste 0 1021 -- 100
2020-11-10 00:00:00 14.8 10 Este 13 Nordeste 0 1021.1 -- 100
2020-11-09 23:00:00 14.7 4 Nordeste 13 Nordeste 0 1021.2 -- 100
2020-11-09 22:00:00 14.6 7 Este 9 Sudeste 0 1021 -- 98
2020-11-09 21:00:00 15.5 3 Sur 9 Sur 0 1020.5 -- 89
2020-11-09 20:00:00 16.7 3 Sudeste 5 Sudeste 0 1020.4 -- 83
2020-11-09 19:00:00 18.5 2 Nordeste 8 Norte 0 1019.9 -- 74
2020-11-09 18:00:00 20.5 4 Norte 11 Noroeste 0 1019.5 -- 60
2020-11-09 17:00:00 21.8 3 Norte 13 Norte 0 1019.2 -- 54
2020-11-09 16:00:00 21.3 4 Oeste 9 Nordeste 0 1019 -- 56
2020-11-09 15:00:00 20.6 3 Nordeste 11 Nordeste 0 1019.1 -- 64
2020-11-09 14:00:00 19.8 3 Nordeste 13 Este 0 1019.4 -- 73
2020-11-09 13:00:00 18.6 0 Calma 9 Nordeste 0 1020.1 -- 81
2020-11-09 12:00:00 18 0 Calma 13 Sudeste 0 1020.7 -- 95
2020-11-09 11:00:00 16.3 6 Este 11 Sudeste 0 1020.7 -- 100
2020-11-09 10:00:00 15.5 5 Este 11 Este 0 1020.4 -- 100
2020-11-09 09:00:00 15 8 Este 13 Este 0 1019.7 -- 100
2020-11-09 08:00:00 14.8 9 Nordeste 17 Norte 0 1018.9 -- 100
2020-11-09 07:00:00 15 5 Nordeste 15 Noroeste 0.1 1018.2 -- 100
2020-11-09 06:00:00 15.3 6 Sur 11 Sur 0.2 1017.8 -- 99
2020-11-09 05:00:00 15.5 6 Sur 13 Sur 0 1017.5 -- 97
2020-11-09 04:00:00 14.9 6 Sur 9 Sur 0 1017.6 -- 100
2020-11-09 03:00:00 14.8 5 Sudeste 9 Sudeste 0 1017.6 -- 100
2020-11-09 02:00:00 15.2 4 Sur 9 Sur 0 1018 -- 100
2020-11-09 01:00:00 15 10 Sudeste 13 Sudeste 0 1018.2 -- 100
2020-11-09 00:00:00 15.2 7 Sudeste -- -- 0 1018.4 -- 100
2020-11-08 23:00:00 15.5 7 Sur 11 Sur 0 1018.5 -- 100
2020-11-08 22:00:00 15.9 9 Sudeste -- -- 0 1018.4 -- 92
2020-11-08 21:00:00 17.6 5 Sur 13 Oeste 0 1018.1 -- 82
2020-11-08 20:00:00 18.5 9 Sudoeste 13 Sudoeste 0 1017.9 -- 78
2020-11-08 19:00:00 19.1 9 Sudoeste 18 Sudoeste 0 1017.5 -- 70
2020-11-08 18:00:00 20.5 14 Sudoeste 26 Sudoeste 0 1017.1 -- 63
2020-11-08 17:00:00 21.8 18 Sudoeste 28 Sudoeste 0 1017.1 -- 57
2020-11-08 16:00:00 22 14 Sudoeste 24 Sudoeste 0 1017.2 -- 57
2020-11-08 15:00:00 21.8 10 Sudoeste 17 Sudoeste 0 1017.4 -- 56
2020-11-08 14:00:00 21.4 5 Sudoeste 15 Sudoeste 0 1017.8 -- 59
2020-11-08 13:00:00 20.4 8 Sudoeste 15 Oeste 0 1018.8 -- 64
2020-11-08 12:00:00 18.9 5 Norte 9 Norte 0 1019.6 -- 74
2020-11-08 11:00:00 17.6 2 Este 8 Este 0 1019.7 -- 80
2020-11-08 10:00:00 14.7 5 Nordeste 11 Nordeste 0 1019.8 -- 100
2020-11-08 09:00:00 13.1 4 Este 9 Este 0 1019.6 -- 100
2020-11-08 08:00:00 12.4 8 Este 11 Este 0 1019.1 -- 100
2020-11-08 07:00:00 12.2 9 Nordeste 13 Nordeste 0 1018.8 -- 100
2020-11-08 06:00:00 12.5 4 Nordeste 11 Este 0 1019 -- 100
2020-11-08 05:00:00 12.7 6 Nordeste 9 Nordeste 0 1019 -- 100
2020-11-08 04:00:00 12.6 3 Norte 9 Nordeste 0 1019.1 -- 100
2020-11-08 03:00:00 12.9 0 Calma 5 Nordeste 0 1019.2 -- 100
2020-11-08 02:00:00 13.3 3 Nordeste 9 Norte 0 1019.4 -- 100
2020-11-08 01:00:00 13.9 4 Noroeste 11 Sudeste 0 1019.6 -- 100
2020-11-08 00:00:00 14 9 Sudeste 15 Sudeste 0 1019.8 -- 100
2020-11-07 23:00:00 14.1 9 Sur 11 Sur 0 1019.8 -- 100
2020-11-07 22:00:00 14.4 6 Sur 9 Sur 0 1019.7 -- 96
2020-11-07 21:00:00 16.5 6 Sur 11 Sur 0 1019.5 -- 83
2020-11-07 20:00:00 16.9 5 Sur 11 Sur 0 1019.2 -- 80
2020-11-07 19:00:00 18.8 8 Sur 17 Sudoeste 0 1018.8 -- 70
2020-11-07 18:00:00 20 15 Sudoeste 30 Sudoeste 0 1018.3 -- 62
2020-11-07 17:00:00 20.9 15 Sudoeste 32 Sudoeste 0 1018 -- 61
2020-11-07 16:00:00 21.1 18 Sudoeste 30 Sudoeste 0 1017.7 -- 60
2020-11-07 15:00:00 21.2 17 Sudoeste 28 Sudoeste 0 1017.7 -- 60
2020-11-07 14:00:00 19.8 10 Oeste 22 Sudoeste 0 1017.9 -- 65
2020-11-07 13:00:00 19.6 19 Sudoeste 26 Sudoeste 0 1018 -- 64
2020-11-07 12:00:00 19.1 13 Oeste 21 Noroeste 0 1018.2 -- 77
2020-11-07 11:00:00 17.9 16 Oeste 24 Oeste 0 1017.3 -- 80
2020-11-07 10:00:00 16.4 13 Sudoeste 22 Sudoeste 0 1016.6 -- 100
2020-11-07 09:00:00 15 12 Sudoeste 18 Sudoeste 0 1015.3 -- 100
2020-11-07 08:00:00 14.2 9 Sur 13 Sur 1 1013.8 -- 100
2020-11-07 07:00:00 13.8 4 Sudeste 5 Sudeste 0 1012.4 -- 100
2020-11-07 06:00:00 13.9 5 Noroeste 11 Sur 0 1011.5 -- 100
2020-11-07 05:00:00 13.9 7 Sur 17 Oeste 3.1 1010.3 -- 100
2020-11-07 04:00:00 13.4 8 Sudeste 30 Sudeste 0 1010.1 -- 100
2020-11-07 03:00:00 13.8 10 Sudeste 24 Sudeste 0.1 1010.3 -- 100
2020-11-07 02:00:00 14.7 15 Sudoeste 33 Sudoeste 4.8 1010.4 -- 92
2020-11-07 01:00:00 15.6 5 Oeste 41 Sudoeste 0.9 1010.3 -- 86
2020-11-07 00:00:00 18.8 31 Sudoeste 46 Sudoeste 0 1009.9 -- 66
2020-11-06 23:00:00 18.6 17 Sudeste 24 Sur 0 1008.6 -- 70
2020-11-06 22:00:00 18.3 16 Sudeste 24 Sudeste 0 1008.4 -- 79
2020-11-06 21:00:00 18.1 9 Este 11 Este 0 1008.6 -- 87
2020-11-06 20:00:00 18.4 5 Este 11 Nordeste 0 1008.9 -- 82
2020-11-06 19:00:00 19.8 6 Sudoeste 33 Sudoeste 0 1008.9 -- 75
2020-11-06 18:00:00 20.7 19 Sudoeste 35 Sudoeste 0 1008.5 -- 70
2020-11-06 17:00:00 22.5 24 Sudoeste 37 Sudoeste 0 1007.9 -- 66
2020-11-06 16:00:00 23.7 16 Sudoeste 26 Sudoeste 0 1007.3 -- 59
2020-11-06 15:00:00 23.5 13 Sudoeste 26 Sudoeste 0 1006.7 -- 61
2020-11-06 14:00:00 22.4 3 Oeste 13 Noroeste 0 1006.9 -- 59
2020-11-06 13:00:00 21.4 10 Noroeste 18 Noroeste 0 1007.5 -- 61
2020-11-06 12:00:00 21.3 9 Oeste 13 Noroeste 0 1008 -- 62
2020-11-06 11:00:00 -- 5 Norte 13 Norte 0 1007.6 -- 62
2020-11-06 10:00:00 19.3 5 Nordeste 21 Nordeste 0 -- -- --
2020-11-06 09:00:00 17.2 17 Nordeste 32 Nordeste 0 1006 -- --
2020-11-06 08:00:00 17.4 24 Este 37 Este 0 -- -- --
2020-11-06 07:00:00 17.3 24 Nordeste 37 Este 0 -- -- --
2020-11-06 06:00:00 16.9 22 Nordeste 35 Nordeste 0 1007.5 -- --
2020-11-06 05:00:00 17.4 24 Este 37 Este 0 1008.1 -- --
2020-11-06 04:00:00 16.7 19 Nordeste 28 Nordeste 0 1008.3 -- --
2020-11-06 03:00:00 16.1 12 Nordeste 17 Nordeste 0 1009.1 -- --
2020-11-06 02:00:00 16.5 8 Norte 21 Oeste 0 1009.6 -- --
2020-11-06 01:00:00 17.3 5 Sur 18 Oeste 0 1010 -- --
2020-11-06 00:00:00 16.7 6 Oeste 15 Norte 0 1009.5 -- --
2020-11-05 23:00:00 17.2 6 Norte 15 Este 0 1008.9 -- --
2020-11-05 22:00:00 16.9 6 Norte 17 Este 0 1008.8 -- --
2020-11-05 21:00:00 17.3 15 Este 22 Este 0 1008.6 -- --
2020-11-05 20:00:00 18.1 18 Este 32 Este 0 1008.7 -- --
2020-11-05 19:00:00 18.4 18 Este 41 Este 0 1008.3 -- 13
2020-11-05 18:00:00 19.5 24 Este 39 Este 0 1007.4 -- 8
2020-11-05 17:00:00 20.5 17 Este 32 Este 0 1007.5 -- 9
2020-11-05 16:00:00 20.4 25 Este 37 Este 0 -- -- 5
2020-11-05 15:00:00 19.1 24 Este 33 Este 0 1008.3 -- 10
2020-11-05 14:00:00 19.4 22 Este 32 Este 0 1008.8 -- 9
2020-11-05 13:00:00 17.8 16 Este 26 Este 0 1009.8 -- 59
2020-11-05 12:00:00 16.3 13 Este 24 Este 0 1010.1 -- 81
2020-11-05 11:00:00 16.6 15 Este 24 Este 0 1010.6 -- 88
2020-11-05 10:00:00 16 12 Este 17 Nordeste 0 1010.4 -- 91
2020-11-05 09:00:00 15.5 10 Nordeste 13 Nordeste 0 1009.6 -- 93
2020-11-05 08:00:00 15.2 7 Este 15 Sudeste 0 1008.8 -- 94
2020-11-05 07:00:00 15.5 12 Sudeste 28 Sur 0 1008.3 -- 93
2020-11-05 06:00:00 15.3 15 Este 22 Este 3 1007.6 -- 97
2020-11-05 05:00:00 14.9 9 Este 24 Sudoeste 4.7 1007.1 -- 96
2020-11-05 04:00:00 14.4 5 Nordeste 18 Nordeste 6.3 1007.2 -- 95
2020-11-05 03:00:00 14.9 13 Este 24 Este 1.8 1007.6 -- 95
2020-11-05 02:00:00 15.9 18 Este 28 Este 5.3 1007.7 -- 93
2020-11-05 01:00:00 16 14 Este 26 Este 1.4 1007.6 -- 81
2020-11-05 00:00:00 17.1 19 Este 26 Este 0 1007.5 -- 68
2020-11-04 23:00:00 17.3 17 Este 26 Este 0 1007.9 -- 64
2020-11-04 22:00:00 17.2 17 Este 24 Este 0 1007.9 -- 62
2020-11-04 21:00:00 16.9 13 Este 18 Este 0 1008 -- 65
2020-11-04 20:00:00 17.7 10 Nordeste 21 Este 0 1008 -- 75
2020-11-04 19:00:00 18.5 14 Este 18 Sudeste 0 1008.2 -- 67
2020-11-04 18:00:00 19.4 7 Este 18 Nordeste 0 1008.2 -- 63
2020-11-04 17:00:00 19.3 12 Norte 26 Norte 0 1008.7 -- 71
2020-11-04 16:00:00 20.4 5 Sudeste 15 Norte 0.1 1009.3 -- 61
2020-11-04 15:00:00 20.7 6 Este 13 Sudeste 0 1009.9 -- 57
2020-11-04 14:00:00 20.1 4 Oeste 15 Oeste 0 1011 -- 61
2020-11-04 13:00:00 20.4 13 Sudoeste 22 Sudoeste 0 1012 -- 55
2020-11-04 12:00:00 20.1 9 Sudoeste 17 Sudoeste 0 1013.1 -- 57
2020-11-04 11:00:00 19.1 13 Sudoeste 21 Sudoeste 0 1013.7 -0.7 52
2020-11-04 10:00:00 17.4 5 Sudoeste 13 Sur 0 1014.2 -- 86
2020-11-04 09:00:00 15.4 5 Norte 9 Noroeste 0 1014.5 -- 94
2020-11-04 08:00:00 15.1 8 Noroeste 9 Noroeste 0 1014.4 -- 100
2020-11-04 07:00:00 15.3 0 Calma 8 Sudoeste 0 1014.4 -- 99
2020-11-04 06:00:00 15.1 0 Calma 5 Sur 0 1014.7 -- 97
2020-11-04 05:00:00 16 4 Sudoeste 8 Oeste 0 1015.2 -- 92
2020-11-04 04:00:00 17.2 5 Norte 8 Norte 0 1015.6 -- 85
2020-11-04 03:00:00 17.7 6 Norte 11 Norte 0 1016.3 -- 83
2020-11-04 02:00:00 18.4 9 Nordeste 13 Nordeste 0 1016.5 -- 78
2020-11-04 01:00:00 18.5 8 Nordeste 11 Nordeste 0 1017.2 -- 82
2020-11-04 00:00:00 19.1 5 Nordeste 9 Norte 0 1018 -- 78
2020-11-03 23:00:00 19.6 7 Nordeste 13 Nordeste 0 1018.3 -- 74
2020-11-03 22:00:00 19.2 6 Este 9 Este 0 1018.3 -- 76
2020-11-03 21:00:00 19.3 7 Este 13 Este 0 1018.5 -- 77
2020-11-03 20:00:00 19.6 8 Este 9 Este 0 1018.4 -- 75
2020-11-03 19:00:00 20.3 8 Noroeste 13 Nordeste 0 1018.3 -- 73
2020-11-03 18:00:00 20.9 11 Nordeste 22 Norte 0 1018.1 -- 72
2020-11-03 17:00:00 22.3 14 Norte 22 Norte 0 1018.1 -- 67
2020-11-03 16:00:00 23.6 11 Noroeste 21 Oeste 0 1017.8 -- 56
2020-11-03 15:00:00 24.2 12 Noroeste 18 Noroeste 0 1018 -- 45
2020-11-03 14:00:00 24.3 5 Norte 13 Nordeste 0 1018.3 -- 46
2020-11-03 13:00:00 23.4 6 Norte 17 Nordeste 0 1019 -- 50
2020-11-03 12:00:00 21.4 8 Nordeste 13 Nordeste 0 1019.5 -- 58
2020-11-03 11:00:00 20.5 9 Norte 13 Norte 0 1019.6 -- 59
2020-11-03 10:00:00 19.5 5 Este 9 Este 0 1019.5 -- 67
2020-11-03 09:00:00 16.5 4 Sudeste 5 Sudeste 0 1019.3 -- 81
2020-11-03 08:00:00 15.9 4 Este 8 Este 0 1018.7 -- 83
2020-11-03 07:00:00 15.7 4 Este 9 Este 0 1018.3 -- 86
2020-11-03 06:00:00 15.1 4 Este 9 Norte 0 1018.4 -- 87
2020-11-03 05:00:00 15.9 6 Norte 11 Noroeste 0 1018.4 -- 85
2020-11-03 04:00:00 15.8 7 Nordeste 11 Este 0 1018.4 -- 86
2020-11-03 03:00:00 16.2 7 Este 13 Este 0 1018.5 -- 83
2020-11-03 02:00:00 16.4 5 Este 9 Este 0 1018.3 -- 78
2020-11-03 01:00:00 15.8 9 Este 11 Este 0 1018.4 -- 77
2020-11-03 00:00:00 17.5 5 Este 9 Este 0 1018.4 -- 72
2020-11-02 23:00:00 18.6 5 Norte 15 Este 0 1018.6 -- 65
2020-11-02 22:00:00 17.9 10 Este 13 Este 0 1018.1 -- 62
2020-11-02 21:00:00 18.8 8 Nordeste 17 Nordeste 0 1018 -- 59
2020-11-02 20:00:00 20 0 Calma 5 Oeste 0 1017.6 -- 57
2020-11-02 19:00:00 23.1 5 Sudoeste -- -- 0 1017 -- 45
2020-11-02 18:00:00 28.3 4 Sur 5 Sur 0 1016.6 -- 26
2020-11-02 17:00:00 28.2 3 Nordeste 9 Norte 0 1016.6 -- 25
2020-11-02 16:00:00 28 6 Norte 13 Norte 0 1016.8 -- 25
2020-11-02 15:00:00 27.4 7 Nordeste 15 Norte 0 1017 -- 29
2020-11-02 14:00:00 26 10 Nordeste 18 Nordeste 0 1017.8 -- 36
2020-11-02 13:00:00 24.5 11 Nordeste 21 Nordeste 0 1018.7 -- 42
2020-11-02 12:00:00 22.7 13 Nordeste 21 Norte 0 1019.3 -- 50
2020-11-02 11:00:00 20.3 14 Nordeste 22 Nordeste 0 1019.4 -- 57
2020-11-02 10:00:00 17.9 13 Nordeste 21 Nordeste 0 1019.5 -- 63
2020-11-02 09:00:00 15.4 12 Nordeste 17 Nordeste 0 1018.9 -- 77
2020-11-02 08:00:00 15.1 11 Nordeste 21 Nordeste 0 1018.5 -- 78
2020-11-02 07:00:00 14.1 5 Nordeste 11 Nordeste 0 1018.4 -- 84
2020-11-02 06:00:00 14.6 3 Nordeste 15 Este 0 1018.2 -- 83
2020-11-02 05:00:00 15.8 8 Nordeste 13 Nordeste 0 1018.2 -- 77
2020-11-02 04:00:00 16 10 Nordeste 13 Nordeste 0 1018.2 -- 80
2020-11-02 03:00:00 15.3 8 Nordeste 11 Nordeste 0 1018.4 -- 82
2020-11-02 02:00:00 15.3 4 Este -- -- 0 1018.5 -- 82
2020-11-02 01:00:00 16.2 2 Norte 8 Norte 0 1018.8 -- 80
2020-11-02 00:00:00 16.8 4 Noroeste 11 Noroeste 0 1019 -- 77